createdAt,value
2024-04-21T00:05:17.478Z,12.14
2024-04-21T00:10:58.248Z,12.10
2024-04-21T00:16:38.846Z,12.17
2024-04-21T00:22:19.341Z,12.18
2024-04-21T00:27:59.976Z,12.17
2024-04-21T00:33:39.931Z,12.21
2024-04-21T00:39:20.439Z,12.23
2024-04-21T00:45:00.920Z,12.29
2024-04-21T00:50:47.823Z,12.35
2024-04-21T00:56:29.056Z,12.39
2024-04-21T01:02:10.833Z,12.41
2024-04-21T01:07:50.645Z,12.45
2024-04-21T01:13:30.785Z,12.49
2024-04-21T01:19:11.411Z,12.54
2024-04-21T01:24:51.608Z,12.53
2024-04-21T01:30:32.892Z,12.57
2024-04-21T01:36:13.294Z,12.60
2024-04-21T01:41:52.981Z,12.57
2024-04-21T01:47:33.596Z,12.63
2024-04-21T01:53:13.988Z,12.69
2024-04-21T01:58:54.535Z,12.70
2024-04-21T02:04:35.161Z,12.67
2024-04-21T02:10:15.369Z,12.71
2024-04-21T02:15:55.080Z,12.79
2024-04-21T02:21:35.768Z,12.81
2024-04-21T02:27:15.894Z,12.81
2024-04-21T02:32:55.918Z,12.81
2024-04-21T02:38:36.214Z,12.82
2024-04-21T02:44:16.564Z,12.78
2024-04-21T02:49:56.413Z,12.77
2024-04-21T02:55:42.101Z,12.67
2024-04-21T03:05:15.949Z,12.62
2024-04-21T03:10:56.077Z,12.49
2024-04-21T03:16:36.457Z,12.58
2024-04-21T03:22:17.818Z,12.59
2024-04-21T03:27:57.943Z,12.66
2024-04-21T03:33:37.969Z,12.78
2024-04-21T03:39:19.382Z,12.88
2024-04-21T03:45:00.256Z,12.99
2024-04-21T03:50:44.090Z,13.09
2024-04-21T03:56:24.318Z,13.24
2024-04-21T04:02:04.209Z,13.39
2024-04-21T04:07:44.583Z,13.57
2024-04-21T04:13:24.752Z,13.71
2024-04-21T04:19:05.047Z,13.77
2024-04-21T04:24:45.052Z,13.80
2024-04-21T04:30:25.520Z,13.77
2024-04-21T04:36:05.915Z,13.75
2024-04-21T04:41:45.843Z,13.78
2024-04-21T04:47:26.372Z,13.92
2024-04-21T04:53:06.224Z,14.09
2024-04-21T04:58:45.825Z,14.18
2024-04-21T05:05:35.079Z,14.54
2024-04-21T05:11:15.335Z,14.55
2024-04-21T05:16:55.263Z,14.62
2024-04-21T05:22:35.160Z,14.69
2024-04-21T05:28:15.754Z,14.73
2024-04-21T05:33:55.549Z,14.77
2024-04-21T05:39:35.723Z,14.95
2024-04-21T05:45:16.099Z,15.17
2024-04-21T05:50:56.096Z,15.22
2024-04-21T05:56:36.162Z,15.09
2024-04-21T06:02:16.285Z,15.03
2024-04-21T06:07:57.081Z,15.15
2024-04-21T06:13:37.538Z,15.31
2024-04-21T06:19:17.869Z,15.44
2024-04-21T06:24:58.341Z,15.62
2024-04-21T06:30:38.418Z,15.78
2024-04-21T06:36:19.199Z,16.03
2024-04-21T06:41:59.138Z,16.28
2024-04-21T06:47:39.555Z,16.60
2024-04-21T06:53:20.268Z,17.05
2024-04-21T06:59:00.518Z,17.54
2024-04-21T07:04:40.905Z,17.47
2024-04-21T07:10:20.856Z,17.47
2024-04-21T07:16:01.125Z,17.76
2024-04-21T07:21:41.965Z,18.41
2024-04-21T07:27:22.036Z,18.96
2024-04-21T07:33:02.026Z,19.23
2024-04-21T07:38:42.392Z,19.66
2024-04-21T07:44:22.622Z,19.77
2024-04-21T07:50:04.575Z,20.12
2024-04-21T07:55:44.468Z,19.93
2024-04-21T08:01:25.028Z,19.58
2024-04-21T08:07:05.446Z,19.50
2024-04-21T08:12:46.916Z,19.68
2024-04-21T08:18:27.419Z,19.75
2024-04-21T08:24:08.265Z,20.16
2024-04-21T08:29:48.330Z,20.64
2024-04-21T08:35:28.680Z,20.83
2024-04-21T08:41:11.573Z,21.51
2024-04-21T08:46:54.200Z,21.87
2024-04-21T08:52:34.787Z,21.89
2024-04-21T08:58:17.353Z,22.24
2024-04-21T09:05:23.991Z,23.00
2024-04-21T09:11:04.831Z,22.53
2024-04-21T09:16:44.857Z,23.18
2024-04-21T09:22:26.606Z,23.74
2024-04-21T09:28:06.906Z,23.53
2024-04-21T09:33:49.865Z,22.96
2024-04-21T09:39:31.064Z,23.09
2024-04-21T09:45:13.970Z,23.24
2024-04-21T09:50:56.410Z,23.13
2024-04-21T09:56:43.645Z,23.62
2024-04-21T10:02:25.515Z,24.48
2024-04-21T10:08:08.054Z,24.45
2024-04-21T10:13:49.048Z,24.34
2024-04-21T10:19:29.674Z,24.22
2024-04-21T10:25:10.081Z,24.38
2024-04-21T10:30:50.087Z,24.50
2024-04-21T10:36:42.117Z,24.45
2024-04-21T10:42:23.336Z,24.58
2024-04-21T10:48:04.667Z,24.55
2024-04-21T10:53:44.532Z,25.21
2024-04-21T10:59:25.361Z,25.03
2024-04-21T11:05:05.765Z,25.21
2024-04-21T11:10:46.244Z,25.82
2024-04-21T11:16:28.068Z,25.79
2024-04-21T11:22:08.832Z,24.48
2024-04-21T11:27:48.725Z,24.73
2024-04-21T11:33:28.794Z,25.02
2024-04-21T11:39:09.160Z,25.55
2024-04-21T11:44:49.725Z,25.92
2024-04-21T11:50:30.123Z,25.12
2024-04-21T11:56:09.749Z,24.30
2024-04-21T12:05:21.825Z,23.62
2024-04-21T12:11:03.879Z,23.44
2024-04-21T12:16:44.182Z,23.35
2024-04-21T12:22:25.829Z,24.27
2024-04-21T12:28:06.219Z,24.66
2024-04-21T12:33:46.227Z,24.02
2024-04-21T12:39:26.595Z,23.45
2024-04-21T12:45:09.079Z,22.96
2024-04-21T12:50:50.281Z,22.54
2024-04-21T12:56:29.946Z,22.46
2024-04-21T13:02:09.806Z,22.60
2024-04-21T13:07:49.778Z,23.25
2024-04-21T13:13:30.751Z,22.61
2024-04-21T13:19:10.667Z,22.32
2024-04-21T13:24:52.120Z,22.35
2024-04-21T13:30:33.103Z,22.29
2024-04-21T13:36:20.604Z,22.12
2024-04-21T13:41:55.128Z,22.24
2024-04-21T13:47:35.287Z,22.23
2024-04-21T13:53:16.177Z,22.05
2024-04-21T13:58:56.074Z,22.05
2024-04-21T14:04:36.434Z,21.71
2024-04-21T14:10:16.798Z,22.08
2024-04-21T14:15:57.075Z,23.04
2024-04-21T14:21:37.514Z,22.31
2024-04-21T14:27:18.235Z,22.31
2024-04-21T14:32:58.933Z,21.66
2024-04-21T14:38:39.479Z,21.18
2024-04-21T14:44:20.185Z,21.29
2024-04-21T14:50:00.448Z,21.26
2024-04-21T14:55:45.003Z,20.81
2024-04-21T15:05:31.625Z,20.10
2024-04-21T15:11:12.109Z,19.46
2024-04-21T15:16:52.315Z,19.09
2024-04-21T15:22:32.333Z,18.95
2024-04-21T15:28:12.343Z,18.75
2024-04-21T15:33:52.423Z,18.64
2024-04-21T15:39:32.394Z,18.53
2024-04-21T15:45:13.180Z,18.68
2024-04-21T15:50:53.409Z,18.68
2024-04-21T15:56:33.596Z,18.47
2024-04-21T16:02:14.814Z,18.23
2024-04-21T16:07:55.181Z,17.92
2024-04-21T16:13:34.908Z,17.69
2024-04-21T16:19:15.072Z,17.42
2024-04-21T16:24:54.867Z,17.27
2024-04-21T16:30:36.341Z,17.07
2024-04-21T16:36:17.366Z,16.94
2024-04-21T16:41:57.598Z,16.59
2024-04-21T16:47:41.193Z,16.32
2024-04-21T16:53:21.862Z,15.91
2024-04-21T16:59:02.920Z,15.71
2024-04-21T17:04:43.578Z,15.60
2024-04-21T17:10:25.182Z,15.58
2024-04-21T17:16:05.803Z,15.48
2024-04-21T17:21:46.234Z,15.40
2024-04-21T17:27:26.663Z,15.28
2024-04-21T17:33:07.197Z,15.24
2024-04-21T17:38:47.910Z,15.16
2024-04-21T17:44:28.278Z,15.10
2024-04-21T17:50:08.427Z,14.98
2024-04-21T17:55:49.115Z,14.86
2024-04-21T18:05:30.588Z,14.55
2024-04-21T18:11:10.338Z,14.41
2024-04-21T18:16:50.405Z,14.22
2024-04-21T18:22:31.422Z,14.07
2024-04-21T18:28:12.360Z,13.98
2024-04-21T18:33:52.275Z,13.90
2024-04-21T18:39:32.528Z,13.79
2024-04-21T18:45:13.605Z,13.62
2024-04-21T18:50:54.185Z,13.44
2024-04-21T18:56:34.861Z,13.30
2024-04-21T19:02:15.252Z,13.16
2024-04-21T19:07:55.086Z,13.03
2024-04-21T19:13:35.968Z,12.96
2024-04-21T19:19:16.872Z,12.87
2024-04-21T19:24:57.225Z,12.68
2024-04-21T19:30:37.448Z,12.56
2024-04-21T19:36:17.620Z,12.53
2024-04-21T19:41:58.041Z,12.49
2024-04-21T19:47:37.990Z,12.44
2024-04-21T19:53:18.031Z,12.31
2024-04-21T19:58:58.400Z,12.32
2024-04-21T20:04:38.971Z,12.18
2024-04-21T20:10:19.440Z,12.08
2024-04-21T20:16:17.624Z,11.96
2024-04-21T20:21:57.931Z,11.98
2024-04-21T20:27:38.340Z,11.88
2024-04-21T20:33:18.224Z,11.79
2024-04-21T20:38:59.212Z,11.79
2024-04-21T20:44:39.066Z,11.62
2024-04-21T20:50:19.532Z,11.51
2024-04-21T20:55:59.910Z,11.46
2024-04-21T21:05:34.220Z,11.43
2024-04-21T21:11:14.032Z,11.29
2024-04-21T21:16:54.332Z,11.11
2024-04-21T21:22:34.643Z,11.06
2024-04-21T21:28:14.887Z,10.95
2024-04-21T21:33:54.786Z,10.89
2024-04-21T21:39:34.568Z,10.91
2024-04-21T21:45:15.136Z,10.87
2024-04-21T21:50:55.549Z,10.78
2024-04-21T21:56:35.936Z,10.69
2024-04-21T22:02:16.547Z,10.58
2024-04-21T22:07:56.522Z,10.50
2024-04-21T22:13:36.843Z,10.52
2024-04-21T22:19:17.334Z,10.52
2024-04-21T22:24:57.525Z,10.52
2024-04-21T22:30:37.395Z,10.47
2024-04-21T22:36:17.784Z,10.46
2024-04-21T22:41:58.393Z,10.43
2024-04-21T22:47:41.747Z,10.35
2024-04-21T22:53:21.688Z,10.33
2024-04-21T22:59:01.865Z,10.26
2024-04-21T23:04:42.044Z,10.22
2024-04-21T23:10:22.705Z,10.25
2024-04-21T23:16:05.552Z,10.19
2024-04-21T23:21:46.037Z,10.15
2024-04-21T23:27:25.959Z,10.17
2024-04-21T23:33:06.106Z,10.24
2024-04-21T23:38:45.990Z,10.22
2024-04-21T23:44:26.447Z,10.13
2024-04-21T23:50:07.310Z,10.09
2024-04-21T23:55:47.456Z,10.19
